sensor_id;sensor_type;location;lat;lon;timestamp;P1;durP1;ratioP1;P2;durP2;ratioP2
61291;SDS011;47165;42.664;23.368;2022-11-15T00:00:23;4.20;;;3.85;;
61291;SDS011;47165;42.664;23.368;2022-11-15T00:02:49;9.82;;;4.30;;
61291;SDS011;47165;42.664;23.368;2022-11-15T00:05:14;6.40;;;2.33;;
61291;SDS011;47165;42.664;23.368;2022-11-15T00:07:40;3.72;;;3.15;;
61291;SDS011;47165;42.664;23.368;2022-11-15T00:10:05;5.07;;;2.78;;
61291;SDS011;47165;42.664;23.368;2022-11-15T00:12:31;7.38;;;3.55;;
61291;SDS011;47165;42.664;23.368;2022-11-15T00:14:56;4.82;;;4.15;;
61291;SDS011;47165;42.664;23.368;2022-11-15T00:17:22;2.55;;;2.35;;
61291;SDS011;47165;42.664;23.368;2022-11-15T00:19:47;9.77;;;4.15;;
61291;SDS011;47165;42.664;23.368;2022-11-15T00:22:13;16.25;;;3.53;;
61291;SDS011;47165;42.664;23.368;2022-11-15T00:24:38;6.95;;;3.15;;
61291;SDS011;47165;42.664;23.368;2022-11-15T00:27:03;7.28;;;5.22;;
61291;SDS011;47165;42.664;23.368;2022-11-15T00:29:29;6.38;;;3.63;;
61291;SDS011;47165;42.664;23.368;2022-11-15T00:31:54;5.20;;;2.55;;
61291;SDS011;47165;42.664;23.368;2022-11-15T00:34:20;3.08;;;2.45;;
61291;SDS011;47165;42.664;23.368;2022-11-15T00:36:45;5.63;;;4.40;;
61291;SDS011;47165;42.664;23.368;2022-11-15T00:39:10;6.60;;;2.35;;
61291;SDS011;47165;42.664;23.368;2022-11-15T00:41:36;6.63;;;3.97;;
61291;SDS011;47165;42.664;23.368;2022-11-15T00:44:01;4.25;;;3.22;;
61291;SDS011;47165;42.664;23.368;2022-11-15T00:46:27;4.85;;;2.75;;
61291;SDS011;47165;42.664;23.368;2022-11-15T00:48:52;5.95;;;3.60;;
61291;SDS011;47165;42.664;23.368;2022-11-15T00:51:17;4.50;;;3.00;;
61291;SDS011;47165;42.664;23.368;2022-11-15T00:53:43;3.55;;;2.40;;
61291;SDS011;47165;42.664;23.368;2022-11-15T00:56:08;3.72;;;2.80;;
61291;SDS011;47165;42.664;23.368;2022-11-15T00:58:34;2.97;;;2.72;;
61291;SDS011;47165;42.664;23.368;2022-11-15T01:01:06;7.28;;;5.15;;
61291;SDS011;47165;42.664;23.368;2022-11-15T01:03:36;12.65;;;4.63;;
61291;SDS011;47165;42.664;23.368;2022-11-15T01:06:03;10.82;;;4.93;;
61291;SDS011;47165;42.664;23.368;2022-11-15T01:08:28;2.38;;;2.20;;
61291;SDS011;47165;42.664;23.368;2022-11-15T01:10:54;5.90;;;3.30;;
61291;SDS011;47165;42.664;23.368;2022-11-15T01:13:19;3.42;;;3.08;;
61291;SDS011;47165;42.664;23.368;2022-11-15T01:15:45;4.07;;;2.75;;
61291;SDS011;47165;42.664;23.368;2022-11-15T01:18:10;5.15;;;2.97;;
61291;SDS011;47165;42.664;23.368;2022-11-15T01:20:39;2.65;;;1.75;;
61291;SDS011;47165;42.664;23.368;2022-11-15T01:23:06;4.38;;;2.22;;
61291;SDS011;47165;42.664;23.368;2022-11-15T01:25:31;4.13;;;2.90;;
61291;SDS011;47165;42.664;23.368;2022-11-15T01:27:57;5.30;;;2.65;;
61291;SDS011;47165;42.664;23.368;2022-11-15T01:30:22;2.97;;;2.08;;
61291;SDS011;47165;42.664;23.368;2022-11-15T01:32:47;7.25;;;3.17;;
61291;SDS011;47165;42.664;23.368;2022-11-15T01:38:35;6.43;;;3.83;;
61291;SDS011;47165;42.664;23.368;2022-11-15T01:41:11;1.63;;;1.52;;
61291;SDS011;47165;42.664;23.368;2022-11-15T01:43:40;2.65;;;1.92;;
61291;SDS011;47165;42.664;23.368;2022-11-15T01:46:08;4.32;;;2.78;;
61291;SDS011;47165;42.664;23.368;2022-11-15T01:48:37;6.70;;;3.45;;
61291;SDS011;47165;42.664;23.368;2022-11-15T01:51:04;5.00;;;3.85;;
61291;SDS011;47165;42.664;23.368;2022-11-15T01:53:34;16.67;;;6.65;;
61291;SDS011;47165;42.664;23.368;2022-11-15T01:56:04;5.90;;;4.38;;
61291;SDS011;47165;42.664;23.368;2022-11-15T01:58:33;5.40;;;2.58;;
61291;SDS011;47165;42.664;23.368;2022-11-15T02:01:00;2.25;;;1.90;;
61291;SDS011;47165;42.664;23.368;2022-11-15T02:03:28;4.75;;;2.75;;
61291;SDS011;47165;42.664;23.368;2022-11-15T02:06:03;10.38;;;3.35;;
61291;SDS011;47165;42.664;23.368;2022-11-15T02:08:30;3.58;;;2.33;;
61291;SDS011;47165;42.664;23.368;2022-11-15T02:10:55;2.13;;;2.00;;
61291;SDS011;47165;42.664;23.368;2022-11-15T02:13:20;5.80;;;2.15;;
61291;SDS011;47165;42.664;23.368;2022-11-15T02:15:58;1.38;;;1.27;;
61291;SDS011;47165;42.664;23.368;2022-11-15T02:18:32;3.92;;;2.53;;
61291;SDS011;47165;42.664;23.368;2022-11-15T02:21:05;4.68;;;2.67;;
61291;SDS011;47165;42.664;23.368;2022-11-15T02:34:35;1.58;;;1.48;;
61291;SDS011;47165;42.664;23.368;2022-11-15T02:38:10;2.40;;;2.20;;
61291;SDS011;47165;42.664;23.368;2022-11-15T02:40:46;0.73;;;0.73;;
61291;SDS011;47165;42.664;23.368;2022-11-15T02:43:21;2.73;;;1.80;;
61291;SDS011;47165;42.664;23.368;2022-11-15T02:49:09;1.40;;;1.30;;
61291;SDS011;47165;42.664;23.368;2022-11-15T02:51:36;16.20;;;4.38;;
61291;SDS011;47165;42.664;23.368;2022-11-15T02:54:03;8.90;;;3.08;;
61291;SDS011;47165;42.664;23.368;2022-11-15T02:56:28;19.17;;;3.70;;
61291;SDS011;47165;42.664;23.368;2022-11-15T02:59:00;6.38;;;3.42;;
61291;SDS011;47165;42.664;23.368;2022-11-15T03:04:52;3.20;;;2.90;;
61291;SDS011;47165;42.664;23.368;2022-11-15T03:07:42;1.17;;;1.17;;
61291;SDS011;47165;42.664;23.368;2022-11-15T03:16:04;1.58;;;1.48;;
61291;SDS011;47165;42.664;23.368;2022-11-15T03:18:53;1.70;;;1.60;;
61291;SDS011;47165;42.664;23.368;2022-11-15T03:21:40;4.38;;;3.20;;
61291;SDS011;47165;42.664;23.368;2022-11-15T03:24:07;7.97;;;3.80;;
61291;SDS011;47165;42.664;23.368;2022-11-15T03:26:34;2.75;;;2.22;;
61291;SDS011;47165;42.664;23.368;2022-11-15T03:29:05;3.78;;;2.20;;
61291;SDS011;47165;42.664;23.368;2022-11-15T03:31:36;3.45;;;2.33;;
61291;SDS011;47165;42.664;23.368;2022-11-15T03:37:38;0.47;;;0.47;;
61291;SDS011;47165;42.664;23.368;2022-11-15T03:40:09;6.90;;;3.05;;
61291;SDS011;47165;42.664;23.368;2022-11-15T03:45:12;4.65;;;3.67;;
61291;SDS011;47165;42.664;23.368;2022-11-15T03:47:43;4.00;;;2.83;;
61291;SDS011;47165;42.664;23.368;2022-11-15T03:50:13;3.60;;;2.85;;
61291;SDS011;47165;42.664;23.368;2022-11-15T03:52:42;4.53;;;3.55;;
61291;SDS011;47165;42.664;23.368;2022-11-15T03:55:15;3.13;;;2.75;;
61291;SDS011;47165;42.664;23.368;2022-11-15T03:57:43;2.78;;;2.45;;
61291;SDS011;47165;42.664;23.368;2022-11-15T04:00:09;6.97;;;4.90;;
61291;SDS011;47165;42.664;23.368;2022-11-15T04:02:36;8.85;;;4.57;;
61291;SDS011;47165;42.664;23.368;2022-11-15T04:05:01;2.00;;;1.90;;
61291;SDS011;47165;42.664;23.368;2022-11-15T04:07:27;5.43;;;4.93;;
61291;SDS011;47165;42.664;23.368;2022-11-15T04:09:53;6.13;;;4.18;;
61291;SDS011;47165;42.664;23.368;2022-11-15T04:12:31;4.20;;;3.88;;
61291;SDS011;47165;42.664;23.368;2022-11-15T04:14:58;2.38;;;1.45;;
61291;SDS011;47165;42.664;23.368;2022-11-15T04:17:32;4.80;;;2.72;;
61291;SDS011;47165;42.664;23.368;2022-11-15T04:19:58;4.50;;;2.58;;
61291;SDS011;47165;42.664;23.368;2022-11-15T04:22:41;3.93;;;1.60;;
61291;SDS011;47165;42.664;23.368;2022-11-15T04:25:25;3.17;;;2.45;;
61291;SDS011;47165;42.664;23.368;2022-11-15T04:27:51;3.50;;;2.72;;
61291;SDS011;47165;42.664;23.368;2022-11-15T04:30:16;6.15;;;3.75;;
61291;SDS011;47165;42.664;23.368;2022-11-15T04:32:42;6.90;;;2.97;;
61291;SDS011;47165;42.664;23.368;2022-11-15T04:35:07;18.50;;;5.85;;
61291;SDS011;47165;42.664;23.368;2022-11-15T04:37:33;7.93;;;4.70;;
61291;SDS011;47165;42.664;23.368;2022-11-15T04:39:58;7.13;;;3.47;;
61291;SDS011;47165;42.664;23.368;2022-11-15T04:42:24;3.70;;;3.42;;
61291;SDS011;47165;42.664;23.368;2022-11-15T04:44:49;4.40;;;2.95;;
61291;SDS011;47165;42.664;23.368;2022-11-15T04:47:15;10.73;;;6.78;;
61291;SDS011;47165;42.664;23.368;2022-11-15T04:49:40;5.60;;;3.08;;
61291;SDS011;47165;42.664;23.368;2022-11-15T04:52:06;2.95;;;2.50;;
61291;SDS011;47165;42.664;23.368;2022-11-15T04:54:31;1.55;;;1.48;;
61291;SDS011;47165;42.664;23.368;2022-11-15T04:56:57;2.17;;;2.00;;
61291;SDS011;47165;42.664;23.368;2022-11-15T04:59:22;3.28;;;2.50;;
61291;SDS011;47165;42.664;23.368;2022-11-15T05:01:48;4.38;;;2.55;;
61291;SDS011;47165;42.664;23.368;2022-11-15T05:04:13;6.03;;;3.50;;
61291;SDS011;47165;42.664;23.368;2022-11-15T05:06:45;5.38;;;4.00;;
61291;SDS011;47165;42.664;23.368;2022-11-15T05:09:11;2.67;;;2.42;;
61291;SDS011;47165;42.664;23.368;2022-11-15T05:11:38;4.72;;;3.50;;
61291;SDS011;47165;42.664;23.368;2022-11-15T05:14:03;6.32;;;2.22;;
61291;SDS011;47165;42.664;23.368;2022-11-15T05:16:29;4.25;;;1.15;;
61291;SDS011;47165;42.664;23.368;2022-11-15T05:18:54;6.35;;;3.90;;
61291;SDS011;47165;42.664;23.368;2022-11-15T05:21:19;2.42;;;2.15;;
61291;SDS011;47165;42.664;23.368;2022-11-15T05:23:45;3.75;;;2.42;;
61291;SDS011;47165;42.664;23.368;2022-11-15T05:26:11;4.55;;;2.63;;
61291;SDS011;47165;42.664;23.368;2022-11-15T05:28:37;2.53;;;2.38;;
61291;SDS011;47165;42.664;23.368;2022-11-15T05:31:07;4.82;;;2.72;;
61291;SDS011;47165;42.664;23.368;2022-11-15T05:33:37;3.53;;;2.78;;
61291;SDS011;47165;42.664;23.368;2022-11-15T05:39:26;5.75;;;2.40;;
61291;SDS011;47165;42.664;23.368;2022-11-15T05:41:52;4.53;;;2.63;;
61291;SDS011;47165;42.664;23.368;2022-11-15T05:44:24;1.65;;;1.48;;
61291;SDS011;47165;42.664;23.368;2022-11-15T05:46:51;9.52;;;4.05;;
61291;SDS011;47165;42.664;23.368;2022-11-15T05:49:21;2.15;;;1.58;;
61291;SDS011;47165;42.664;23.368;2022-11-15T05:51:49;4.88;;;3.55;;
61291;SDS011;47165;42.664;23.368;2022-11-15T05:54:16;2.92;;;1.95;;
61291;SDS011;47165;42.664;23.368;2022-11-15T05:56:45;2.50;;;2.25;;
61291;SDS011;47165;42.664;23.368;2022-11-15T05:59:11;2.30;;;2.10;;
61291;SDS011;47165;42.664;23.368;2022-11-15T06:01:36;2.15;;;2.03;;
61291;SDS011;47165;42.664;23.368;2022-11-15T06:04:03;3.58;;;1.77;;
61291;SDS011;47165;42.664;23.368;2022-11-15T06:06:29;4.38;;;2.92;;
61291;SDS011;47165;42.664;23.368;2022-11-15T06:08:54;1.60;;;1.50;;
61291;SDS011;47165;42.664;23.368;2022-11-15T06:11:20;4.07;;;2.75;;
61291;SDS011;47165;42.664;23.368;2022-11-15T06:13:45;1.35;;;1.25;;
61291;SDS011;47165;42.664;23.368;2022-11-15T06:16:10;4.93;;;1.50;;
61291;SDS011;47165;42.664;23.368;2022-11-15T06:18:36;0.90;;;0.88;;
61291;SDS011;47165;42.664;23.368;2022-11-15T06:21:01;4.43;;;2.72;;
61291;SDS011;47165;42.664;23.368;2022-11-15T06:23:27;2.22;;;1.98;;
61291;SDS011;47165;42.664;23.368;2022-11-15T06:25:53;2.05;;;1.88;;
61291;SDS011;47165;42.664;23.368;2022-11-15T06:28:19;3.63;;;1.92;;
61291;SDS011;47165;42.664;23.368;2022-11-15T06:30:44;2.45;;;1.30;;
61291;SDS011;47165;42.664;23.368;2022-11-15T06:33:10;2.15;;;1.15;;
61291;SDS011;47165;42.664;23.368;2022-11-15T06:35:35;2.28;;;1.65;;
61291;SDS011;47165;42.664;23.368;2022-11-15T06:38:02;5.00;;;2.55;;
61291;SDS011;47165;42.664;23.368;2022-11-15T06:40:29;0.50;;;0.50;;
61291;SDS011;47165;42.664;23.368;2022-11-15T06:42:58;6.13;;;1.83;;
61291;SDS011;47165;42.664;23.368;2022-11-15T06:45:24;3.88;;;1.90;;
61291;SDS011;47165;42.664;23.368;2022-11-15T06:47:50;8.43;;;2.20;;
61291;SDS011;47165;42.664;23.368;2022-11-15T06:50:15;1.92;;;1.75;;
61291;SDS011;47165;42.664;23.368;2022-11-15T06:52:41;3.65;;;2.33;;
61291;SDS011;47165;42.664;23.368;2022-11-15T06:55:07;2.40;;;2.30;;
61291;SDS011;47165;42.664;23.368;2022-11-15T06:57:33;2.97;;;1.80;;
61291;SDS011;47165;42.664;23.368;2022-11-15T06:59:58;1.02;;;0.93;;
61291;SDS011;47165;42.664;23.368;2022-11-15T07:02:23;2.17;;;1.58;;
61291;SDS011;47165;42.664;23.368;2022-11-15T07:04:50;4.55;;;2.03;;
61291;SDS011;47165;42.664;23.368;2022-11-15T07:07:15;1.50;;;1.42;;
61291;SDS011;47165;42.664;23.368;2022-11-15T07:09:40;2.83;;;1.80;;
61291;SDS011;47165;42.664;23.368;2022-11-15T07:12:06;1.13;;;1.05;;
61291;SDS011;47165;42.664;23.368;2022-11-15T07:14:31;1.80;;;1.67;;
61291;SDS011;47165;42.664;23.368;2022-11-15T07:16:57;0.98;;;0.88;;
61291;SDS011;47165;42.664;23.368;2022-11-15T07:19:22;4.47;;;2.10;;
61291;SDS011;47165;42.664;23.368;2022-11-15T07:21:47;2.53;;;1.88;;
61291;SDS011;47165;42.664;23.368;2022-11-15T07:24:13;1.98;;;1.80;;
61291;SDS011;47165;42.664;23.368;2022-11-15T07:26:38;2.92;;;2.63;;
61291;SDS011;47165;42.664;23.368;2022-11-15T07:29:04;2.30;;;1.95;;
61291;SDS011;47165;42.664;23.368;2022-11-15T07:31:29;3.08;;;2.83;;
61291;SDS011;47165;42.664;23.368;2022-11-15T07:33:54;3.28;;;2.15;;
61291;SDS011;47165;42.664;23.368;2022-11-15T07:39:42;2.53;;;2.28;;
61291;SDS011;47165;42.664;23.368;2022-11-15T07:42:08;2.33;;;2.13;;
61291;SDS011;47165;42.664;23.368;2022-11-15T07:44:52;2.10;;;1.95;;
61291;SDS011;47165;42.664;23.368;2022-11-15T07:47:17;4.45;;;1.90;;
61291;SDS011;47165;42.664;23.368;2022-11-15T07:49:43;2.35;;;2.15;;
61291;SDS011;47165;42.664;23.368;2022-11-15T07:52:09;3.13;;;2.85;;
61291;SDS011;47165;42.664;23.368;2022-11-15T07:54:34;1.02;;;0.93;;
61291;SDS011;47165;42.664;23.368;2022-11-15T07:56:59;2.33;;;2.22;;
61291;SDS011;47165;42.664;23.368;2022-11-15T07:59:25;2.17;;;2.00;;
61291;SDS011;47165;42.664;23.368;2022-11-15T08:01:50;4.53;;;3.13;;
61291;SDS011;47165;42.664;23.368;2022-11-15T08:04:15;2.58;;;1.75;;
61291;SDS011;47165;42.664;23.368;2022-11-15T08:06:41;3.83;;;3.58;;
61291;SDS011;47165;42.664;23.368;2022-11-15T08:09:06;3.90;;;2.10;;
61291;SDS011;47165;42.664;23.368;2022-11-15T08:11:32;5.63;;;4.53;;
61291;SDS011;47165;42.664;23.368;2022-11-15T08:13:58;5.13;;;2.80;;
61291;SDS011;47165;42.664;23.368;2022-11-15T08:16:23;5.75;;;2.25;;
61291;SDS011;47165;42.664;23.368;2022-11-15T08:18:49;3.85;;;3.05;;
61291;SDS011;47165;42.664;23.368;2022-11-15T08:21:14;4.22;;;3.30;;
61291;SDS011;47165;42.664;23.368;2022-11-15T08:23:44;7.47;;;3.60;;
61291;SDS011;47165;42.664;23.368;2022-11-15T08:26:09;7.38;;;4.63;;
61291;SDS011;47165;42.664;23.368;2022-11-15T08:28:35;6.65;;;4.50;;
61291;SDS011;47165;42.664;23.368;2022-11-15T08:31:00;5.95;;;4.40;;
61291;SDS011;47165;42.664;23.368;2022-11-15T08:33:26;10.75;;;3.25;;
61291;SDS011;47165;42.664;23.368;2022-11-15T08:35:52;5.82;;;3.30;;
61291;SDS011;47165;42.664;23.368;2022-11-15T08:38:21;12.60;;;5.05;;
61291;SDS011;47165;42.664;23.368;2022-11-15T08:40:46;6.03;;;3.30;;
61291;SDS011;47165;42.664;23.368;2022-11-15T08:43:12;5.78;;;1.98;;
61291;SDS011;47165;42.664;23.368;2022-11-15T08:45:37;6.25;;;3.63;;
61291;SDS011;47165;42.664;23.368;2022-11-15T08:48:03;8.18;;;4.88;;
61291;SDS011;47165;42.664;23.368;2022-11-15T08:50:28;4.10;;;3.67;;
61291;SDS011;47165;42.664;23.368;2022-11-15T08:52:54;4.15;;;2.75;;
61291;SDS011;47165;42.664;23.368;2022-11-15T08:55:20;3.88;;;3.22;;
61291;SDS011;47165;42.664;23.368;2022-11-15T08:57:45;6.35;;;4.00;;
61291;SDS011;47165;42.664;23.368;2022-11-15T09:00:11;15.52;;;2.85;;
61291;SDS011;47165;42.664;23.368;2022-11-15T09:02:40;9.63;;;4.00;;
61291;SDS011;47165;42.664;23.368;2022-11-15T09:05:06;3.63;;;2.90;;
61291;SDS011;47165;42.664;23.368;2022-11-15T09:07:32;11.80;;;7.28;;
61291;SDS011;47165;42.664;23.368;2022-11-15T09:09:58;4.22;;;3.70;;
61291;SDS011;47165;42.664;23.368;2022-11-15T09:12:23;5.55;;;4.03;;
61291;SDS011;47165;42.664;23.368;2022-11-15T09:14:49;6.88;;;3.25;;
61291;SDS011;47165;42.664;23.368;2022-11-15T09:17:15;6.30;;;2.85;;
61291;SDS011;47165;42.664;23.368;2022-11-15T09:19:40;3.40;;;2.85;;
61291;SDS011;47165;42.664;23.368;2022-11-15T09:22:06;5.28;;;4.13;;
61291;SDS011;47165;42.664;23.368;2022-11-15T09:24:33;5.63;;;4.45;;
61291;SDS011;47165;42.664;23.368;2022-11-15T09:26:59;4.00;;;3.33;;
61291;SDS011;47165;42.664;23.368;2022-11-15T09:29:24;5.20;;;3.63;;
61291;SDS011;47165;42.664;23.368;2022-11-15T09:31:51;9.85;;;4.03;;
61291;SDS011;47165;42.664;23.368;2022-11-15T09:37:39;4.53;;;3.63;;
61291;SDS011;47165;42.664;23.368;2022-11-15T09:40:05;6.55;;;4.85;;
61291;SDS011;47165;42.664;23.368;2022-11-15T09:45:27;4.28;;;3.88;;
61291;SDS011;47165;42.664;23.368;2022-11-15T09:50:34;5.03;;;4.55;;
61291;SDS011;47165;42.664;23.368;2022-11-15T09:53:03;3.25;;;2.90;;
61291;SDS011;47165;42.664;23.368;2022-11-15T09:55:35;6.70;;;5.38;;
61291;SDS011;47165;42.664;23.368;2022-11-15T09:58:16;9.98;;;5.30;;
61291;SDS011;47165;42.664;23.368;2022-11-15T10:00:49;6.22;;;4.38;;
61291;SDS011;47165;42.664;23.368;2022-11-15T10:03:27;6.30;;;4.45;;
61291;SDS011;47165;42.664;23.368;2022-11-15T10:06:00;10.73;;;7.43;;
61291;SDS011;47165;42.664;23.368;2022-11-15T10:11:17;4.30;;;3.35;;
61291;SDS011;47165;42.664;23.368;2022-11-15T10:13:46;6.90;;;4.50;;
61291;SDS011;47165;42.664;23.368;2022-11-15T10:24:57;8.68;;;3.88;;
61291;SDS011;47165;42.664;23.368;2022-11-15T10:27:34;9.27;;;6.90;;
61291;SDS011;47165;42.664;23.368;2022-11-15T10:30:00;9.43;;;8.25;;
61291;SDS011;47165;42.664;23.368;2022-11-15T10:32:26;6.63;;;4.38;;
61291;SDS011;47165;42.664;23.368;2022-11-15T10:34:51;13.52;;;6.15;;
61291;SDS011;47165;42.664;23.368;2022-11-15T10:37:30;9.80;;;6.57;;
61291;SDS011;47165;42.664;23.368;2022-11-15T10:40:06;18.40;;;8.38;;
61291;SDS011;47165;42.664;23.368;2022-11-15T10:42:40;13.30;;;6.50;;
61291;SDS011;47165;42.664;23.368;2022-11-15T10:47:51;17.80;;;7.10;;
61291;SDS011;47165;42.664;23.368;2022-11-15T10:50:30;17.08;;;9.23;;
61291;SDS011;47165;42.664;23.368;2022-11-15T10:52:57;20.10;;;9.80;;
61291;SDS011;47165;42.664;23.368;2022-11-15T10:55:30;16.27;;;7.88;;
61291;SDS011;47165;42.664;23.368;2022-11-15T10:58:19;12.30;;;8.48;;
61291;SDS011;47165;42.664;23.368;2022-11-15T11:00:56;14.25;;;8.10;;
61291;SDS011;47165;42.664;23.368;2022-11-15T11:03:38;15.60;;;8.35;;
61291;SDS011;47165;42.664;23.368;2022-11-15T11:06:06;16.65;;;9.68;;
61291;SDS011;47165;42.664;23.368;2022-11-15T11:11:19;18.35;;;8.40;;
61291;SDS011;47165;42.664;23.368;2022-11-15T11:13:45;12.13;;;7.60;;
61291;SDS011;47165;42.664;23.368;2022-11-15T11:16:16;16.02;;;8.30;;
61291;SDS011;47165;42.664;23.368;2022-11-15T11:21:30;22.10;;;9.10;;
61291;SDS011;47165;42.664;23.368;2022-11-15T11:27:18;17.60;;;8.45;;
61291;SDS011;47165;42.664;23.368;2022-11-15T11:30:09;15.52;;;8.23;;
61291;SDS011;47165;42.664;23.368;2022-11-15T11:33:07;11.95;;;6.78;;
61291;SDS011;47165;42.664;23.368;2022-11-15T11:44:15;23.73;;;9.95;;
61291;SDS011;47165;42.664;23.368;2022-11-15T11:49:28;18.65;;;9.98;;
61291;SDS011;47165;42.664;23.368;2022-11-15T11:54:34;17.55;;;8.82;;
61291;SDS011;47165;42.664;23.368;2022-11-15T11:59:39;13.93;;;6.32;;
61291;SDS011;47165;42.664;23.368;2022-11-15T12:02:12;23.40;;;11.35;;
61291;SDS011;47165;42.664;23.368;2022-11-15T12:04:47;20.10;;;10.82;;
61291;SDS011;47165;42.664;23.368;2022-11-15T12:07:23;17.63;;;9.65;;
61291;SDS011;47165;42.664;23.368;2022-11-15T12:12:30;19.02;;;9.52;;
61291;SDS011;47165;42.664;23.368;2022-11-15T12:15:09;12.60;;;7.55;;
61291;SDS011;47165;42.664;23.368;2022-11-15T12:17:40;15.20;;;8.93;;
61291;SDS011;47165;42.664;23.368;2022-11-15T12:20:17;19.15;;;10.20;;
61291;SDS011;47165;42.664;23.368;2022-11-15T12:22:58;13.50;;;8.13;;
61291;SDS011;47165;42.664;23.368;2022-11-15T12:25:30;19.75;;;8.48;;
61291;SDS011;47165;42.664;23.368;2022-11-15T12:28:20;14.02;;;8.52;;
61291;SDS011;47165;42.664;23.368;2022-11-15T12:31:03;19.67;;;8.63;;
61291;SDS011;47165;42.664;23.368;2022-11-15T12:36:49;19.40;;;8.63;;
61291;SDS011;47165;42.664;23.368;2022-11-15T12:39:09;15.68;;;8.80;;
61291;SDS011;47165;42.664;23.368;2022-11-15T12:41:37;12.23;;;8.10;;
61291;SDS011;47165;42.664;23.368;2022-11-15T12:44:09;20.60;;;9.63;;
61291;SDS011;47165;42.664;23.368;2022-11-15T12:49:11;19.90;;;7.82;;
61291;SDS011;47165;42.664;23.368;2022-11-15T13:10:50;17.38;;;7.95;;
61291;SDS011;47165;42.664;23.368;2022-11-15T13:12:51;19.52;;;8.43;;
61291;SDS011;47165;42.664;23.368;2022-11-15T13:17:47;16.75;;;9.35;;
61291;SDS011;47165;42.664;23.368;2022-11-15T13:20:17;17.85;;;9.40;;
61291;SDS011;47165;42.664;23.368;2022-11-15T13:28:24;14.35;;;6.95;;
61291;SDS011;47165;42.664;23.368;2022-11-15T13:30:51;19.02;;;9.00;;
61291;SDS011;47165;42.664;23.368;2022-11-15T13:36:40;19.08;;;8.90;;
61291;SDS011;47165;42.664;23.368;2022-11-15T13:39:06;21.63;;;9.68;;
61291;SDS011;47165;42.664;23.368;2022-11-15T13:41:49;17.15;;;8.07;;
61291;SDS011;47165;42.664;23.368;2022-11-15T13:44:23;16.83;;;8.35;;
61291;SDS011;47165;42.664;23.368;2022-11-15T13:47:24;13.45;;;7.97;;
61291;SDS011;47165;42.664;23.368;2022-11-15T13:49:44;15.93;;;8.50;;
61291;SDS011;47165;42.664;23.368;2022-11-15T13:52:13;12.25;;;7.88;;
61291;SDS011;47165;42.664;23.368;2022-11-15T13:54:50;19.40;;;9.77;;
61291;SDS011;47165;42.664;23.368;2022-11-15T13:57:24;16.27;;;7.10;;
61291;SDS011;47165;42.664;23.368;2022-11-15T14:00:04;15.55;;;7.50;;
61291;SDS011;47165;42.664;23.368;2022-11-15T14:02:32;14.45;;;7.57;;
61291;SDS011;47165;42.664;23.368;2022-11-15T14:07:57;15.40;;;9.48;;
61291;SDS011;47165;42.664;23.368;2022-11-15T14:12:58;17.23;;;7.88;;
61291;SDS011;47165;42.664;23.368;2022-11-15T14:15:27;18.60;;;8.30;;
61291;SDS011;47165;42.664;23.368;2022-11-15T14:17:55;17.23;;;7.97;;
61291;SDS011;47165;42.664;23.368;2022-11-15T14:23:19;13.43;;;8.48;;
61291;SDS011;47165;42.664;23.368;2022-11-15T14:25:54;11.18;;;5.60;;
61291;SDS011;47165;42.664;23.368;2022-11-15T14:30:49;14.82;;;8.30;;
61291;SDS011;47165;42.664;23.368;2022-11-15T14:33:20;16.42;;;9.45;;
61291;SDS011;47165;42.664;23.368;2022-11-15T14:36:04;20.42;;;9.05;;
61291;SDS011;47165;42.664;23.368;2022-11-15T14:38:37;11.32;;;6.72;;
61291;SDS011;47165;42.664;23.368;2022-11-15T14:41:04;11.63;;;7.88;;
61291;SDS011;47165;42.664;23.368;2022-11-15T14:43:30;20.92;;;9.90;;
61291;SDS011;47165;42.664;23.368;2022-11-15T14:45:56;18.75;;;10.10;;
61291;SDS011;47165;42.664;23.368;2022-11-15T14:48:22;22.75;;;10.68;;
61291;SDS011;47165;42.664;23.368;2022-11-15T14:50:47;17.15;;;8.73;;
61291;SDS011;47165;42.664;23.368;2022-11-15T14:53:14;25.33;;;10.93;;
61291;SDS011;47165;42.664;23.368;2022-11-15T14:55:41;14.60;;;7.95;;
61291;SDS011;47165;42.664;23.368;2022-11-15T14:58:07;13.63;;;7.60;;
61291;SDS011;47165;42.664;23.368;2022-11-15T15:00:34;14.20;;;9.43;;
61291;SDS011;47165;42.664;23.368;2022-11-15T15:03:01;10.77;;;6.72;;
61291;SDS011;47165;42.664;23.368;2022-11-15T15:05:35;13.32;;;7.75;;
61291;SDS011;47165;42.664;23.368;2022-11-15T15:08:02;8.23;;;5.30;;
61291;SDS011;47165;42.664;23.368;2022-11-15T15:10:31;11.55;;;7.97;;
61291;SDS011;47165;42.664;23.368;2022-11-15T15:12:58;21.67;;;8.73;;
61291;SDS011;47165;42.664;23.368;2022-11-15T15:15:24;17.48;;;8.70;;
61291;SDS011;47165;42.664;23.368;2022-11-15T15:17:54;14.10;;;6.88;;
61291;SDS011;47165;42.664;23.368;2022-11-15T15:20:19;16.25;;;8.63;;
61291;SDS011;47165;42.664;23.368;2022-11-15T15:22:45;11.02;;;5.30;;
61291;SDS011;47165;42.664;23.368;2022-11-15T15:25:15;12.55;;;6.97;;
61291;SDS011;47165;42.664;23.368;2022-11-15T15:27:46;12.48;;;7.68;;
61291;SDS011;47165;42.664;23.368;2022-11-15T15:30:11;15.45;;;8.02;;
61291;SDS011;47165;42.664;23.368;2022-11-15T15:32:37;9.55;;;5.53;;
61291;SDS011;47165;42.664;23.368;2022-11-15T15:38:24;10.75;;;6.80;;
61291;SDS011;47165;42.664;23.368;2022-11-15T15:40:49;17.58;;;9.55;;
61291;SDS011;47165;42.664;23.368;2022-11-15T15:43:15;16.05;;;8.38;;
61291;SDS011;47165;42.664;23.368;2022-11-15T15:45:41;19.45;;;10.23;;
61291;SDS011;47165;42.664;23.368;2022-11-15T15:48:13;11.38;;;6.47;;
61291;SDS011;47165;42.664;23.368;2022-11-15T15:50:41;11.65;;;5.78;;
61291;SDS011;47165;42.664;23.368;2022-11-15T15:53:08;9.48;;;5.15;;
61291;SDS011;47165;42.664;23.368;2022-11-15T15:55:35;12.55;;;5.90;;
61291;SDS011;47165;42.664;23.368;2022-11-15T15:58:01;9.63;;;6.40;;
61291;SDS011;47165;42.664;23.368;2022-11-15T16:00:27;13.55;;;6.40;;
61291;SDS011;47165;42.664;23.368;2022-11-15T16:02:53;11.45;;;6.78;;
61291;SDS011;47165;42.664;23.368;2022-11-15T16:05:19;9.07;;;5.28;;
61291;SDS011;47165;42.664;23.368;2022-11-15T16:07:44;12.90;;;7.03;;
61291;SDS011;47165;42.664;23.368;2022-11-15T16:10:16;10.20;;;6.18;;
61291;SDS011;47165;42.664;23.368;2022-11-15T16:12:53;12.00;;;5.70;;
61291;SDS011;47165;42.664;23.368;2022-11-15T16:15:19;12.93;;;8.15;;
61291;SDS011;47165;42.664;23.368;2022-11-15T16:17:53;10.40;;;7.55;;
61291;SDS011;47165;42.664;23.368;2022-11-15T16:25:20;13.20;;;7.20;;
61291;SDS011;47165;42.664;23.368;2022-11-15T16:27:45;9.68;;;7.40;;
61291;SDS011;47165;42.664;23.368;2022-11-15T16:30:15;17.50;;;11.32;;
61291;SDS011;47165;42.664;23.368;2022-11-15T16:32:42;6.78;;;5.93;;
61291;SDS011;47165;42.664;23.368;2022-11-15T16:35:11;12.38;;;7.63;;
61291;SDS011;47165;42.664;23.368;2022-11-15T16:37:37;15.88;;;11.20;;
61291;SDS011;47165;42.664;23.368;2022-11-15T16:40:10;20.42;;;8.55;;
61291;SDS011;47165;42.664;23.368;2022-11-15T16:42:50;10.77;;;5.70;;
61291;SDS011;47165;42.664;23.368;2022-11-15T16:45:15;8.18;;;6.30;;
61291;SDS011;47165;42.664;23.368;2022-11-15T16:47:41;10.90;;;5.55;;
61291;SDS011;47165;42.664;23.368;2022-11-15T16:50:12;9.30;;;7.55;;
61291;SDS011;47165;42.664;23.368;2022-11-15T16:52:52;8.63;;;6.75;;
61291;SDS011;47165;42.664;23.368;2022-11-15T16:55:20;11.70;;;6.50;;
61291;SDS011;47165;42.664;23.368;2022-11-15T16:57:46;20.25;;;9.40;;
61291;SDS011;47165;42.664;23.368;2022-11-15T17:00:13;18.55;;;8.40;;
61291;SDS011;47165;42.664;23.368;2022-11-15T17:02:50;10.45;;;8.07;;